createdAt,value
2019-03-11T00:00:37.045Z,2.00
2019-03-11T00:03:06.682Z,1.30
2019-03-11T00:05:36.270Z,1.50
2019-03-11T00:08:06.721Z,1.40
2019-03-11T00:10:36.249Z,1.20
2019-03-11T00:13:05.794Z,2.43
2019-03-11T00:15:35.293Z,2.57
2019-03-11T00:18:04.837Z,1.63
2019-03-11T00:20:34.403Z,1.13
2019-03-11T00:23:03.945Z,1.57
2019-03-11T00:25:33.465Z,1.20
2019-03-11T00:28:03.000Z,1.50
2019-03-11T00:30:32.522Z,1.70
2019-03-11T00:33:02.063Z,1.63
2019-03-11T00:35:31.619Z,1.00
2019-03-11T00:38:01.146Z,2.83
2019-03-11T00:40:30.725Z,1.47
2019-03-11T00:43:00.221Z,3.40
2019-03-11T00:45:29.748Z,2.67
2019-03-11T00:48:02.419Z,2.77
2019-03-11T00:50:30.494Z,1.80
2019-03-11T00:53:00.099Z,4.13
2019-03-11T00:55:29.637Z,4.30
2019-03-11T00:57:59.199Z,2.83
2019-03-11T01:00:31.188Z,3.70
2019-03-11T01:03:00.747Z,4.40
2019-03-11T01:05:30.269Z,3.63
2019-03-11T01:07:59.786Z,1.30
2019-03-11T01:10:29.270Z,4.47
2019-03-11T01:12:58.846Z,3.93
2019-03-11T01:15:28.408Z,4.10
2019-03-11T01:17:58.014Z,4.10
2019-03-11T01:20:27.905Z,3.63
2019-03-11T01:22:57.402Z,2.27
2019-03-11T01:25:26.928Z,3.00
2019-03-11T01:27:56.402Z,4.60
2019-03-11T01:30:25.928Z,3.90
2019-03-11T01:32:55.416Z,7.23
2019-03-11T01:35:25.011Z,5.40
2019-03-11T01:37:54.509Z,8.33
2019-03-11T01:40:24.062Z,5.33
2019-03-11T01:42:53.553Z,2.20
2019-03-11T01:45:23.082Z,5.87
2019-03-11T01:47:52.578Z,2.47
2019-03-11T01:50:22.106Z,6.83
2019-03-11T01:52:51.633Z,6.00
2019-03-11T01:55:21.433Z,4.33
2019-03-11T01:57:50.960Z,4.57
2019-03-11T02:00:20.589Z,5.50
2019-03-11T02:02:50.142Z,5.63
2019-03-11T02:05:19.682Z,8.07
2019-03-11T02:07:49.266Z,3.60
2019-03-11T02:10:19.103Z,4.57
2019-03-11T02:12:48.540Z,4.43
2019-03-11T02:15:18.192Z,2.23
2019-03-11T02:17:47.853Z,4.30
2019-03-11T02:20:17.591Z,6.63
2019-03-11T02:22:47.153Z,3.87
2019-03-11T02:25:16.862Z,11.70
2019-03-11T02:27:46.374Z,7.97
2019-03-11T02:30:16.272Z,4.00
2019-03-11T02:32:45.886Z,3.50
2019-03-11T02:35:25.149Z,2.23
2019-03-11T02:37:54.694Z,4.10
2019-03-11T02:40:24.183Z,2.63
2019-03-11T02:42:53.695Z,2.87
2019-03-11T02:45:23.168Z,4.93
2019-03-11T02:47:52.733Z,2.63
2019-03-11T02:50:22.271Z,6.43
2019-03-11T02:52:51.815Z,4.43
2019-03-11T02:55:21.366Z,1.90
2019-03-11T02:57:50.897Z,4.27
2019-03-11T03:00:20.875Z,5.70
2019-03-11T03:03:08.084Z,4.47
2019-03-11T03:05:41.447Z,5.63
2019-03-11T03:08:10.952Z,2.67
2019-03-11T03:10:40.561Z,4.33
2019-03-11T03:13:10.079Z,6.10
2019-03-11T03:15:39.595Z,6.63
2019-03-11T03:18:09.137Z,5.63
2019-03-11T03:20:38.651Z,6.83
2019-03-11T03:23:08.194Z,2.63
2019-03-11T03:25:37.711Z,3.77
2019-03-11T03:28:07.434Z,7.73
2019-03-11T03:30:37.198Z,3.83
2019-03-11T03:33:06.743Z,6.60
2019-03-11T03:35:36.204Z,5.33
2019-03-11T03:38:05.752Z,9.37
2019-03-11T03:40:35.247Z,8.30
2019-03-11T03:43:04.905Z,6.33
2019-03-11T03:45:40.591Z,10.70
2019-03-11T03:48:10.303Z,10.30
2019-03-11T03:50:40.402Z,11.93
2019-03-11T03:53:10.305Z,13.73
2019-03-11T03:55:39.855Z,8.27
2019-03-11T03:58:09.348Z,10.93
2019-03-11T04:00:38.894Z,11.67
2019-03-11T04:03:08.480Z,11.70
2019-03-11T04:05:38.033Z,8.33
2019-03-11T04:08:07.628Z,11.53
2019-03-11T04:10:37.233Z,14.50
2019-03-11T04:13:06.755Z,9.03
2019-03-11T04:15:36.450Z,8.83
2019-03-11T04:18:09.292Z,7.90
2019-03-11T04:20:39.107Z,10.07
2019-03-11T04:23:08.786Z,6.00
2019-03-11T04:25:38.322Z,4.63
2019-03-11T04:28:07.947Z,8.30
2019-03-11T04:30:37.559Z,7.87
2019-03-11T04:33:07.207Z,8.90
2019-03-11T04:35:36.685Z,11.33
2019-03-11T04:38:06.243Z,9.83
2019-03-11T04:40:35.743Z,6.73
2019-03-11T04:43:05.289Z,8.03
2019-03-11T04:45:34.910Z,12.43
2019-03-11T04:48:04.454Z,13.10
2019-03-11T04:50:33.973Z,10.63
2019-03-11T04:53:03.499Z,11.37
2019-03-11T04:55:32.995Z,3.77
2019-03-11T04:58:02.563Z,7.07
2019-03-11T05:00:32.104Z,6.77
2019-03-11T05:03:01.669Z,5.83
2019-03-11T05:05:31.274Z,4.27
2019-03-11T05:08:00.915Z,6.27
2019-03-11T05:10:30.392Z,5.30
2019-03-11T05:12:59.920Z,5.87
2019-03-11T05:15:29.473Z,6.83
2019-03-11T05:17:59.001Z,9.33
2019-03-11T05:20:28.598Z,7.27
2019-03-11T05:22:58.175Z,2.83
2019-03-11T05:25:27.690Z,4.17
2019-03-11T05:27:57.259Z,5.50
2019-03-11T05:30:26.948Z,4.20
2019-03-11T05:32:57.205Z,5.47
2019-03-11T05:35:26.670Z,2.93
2019-03-11T05:37:56.198Z,4.37
2019-03-11T05:40:26.066Z,6.43
2019-03-11T05:42:56.239Z,3.57
2019-03-11T05:45:25.774Z,4.37
2019-03-11T05:47:55.235Z,9.93
2019-03-11T05:50:24.927Z,4.27
2019-03-11T05:52:54.427Z,6.80
2019-03-11T05:55:23.941Z,6.43
2019-03-11T05:57:53.458Z,4.77
2019-03-11T06:00:26.431Z,6.53
2019-03-11T06:02:55.982Z,7.97
2019-03-11T06:05:25.512Z,7.07
2019-03-11T06:07:55.031Z,4.63
2019-03-11T06:10:24.619Z,4.37
2019-03-11T06:12:55.005Z,1.13
2019-03-11T06:15:24.558Z,6.70
2019-03-11T06:17:54.095Z,7.27
2019-03-11T06:20:40.881Z,7.50
2019-03-11T06:23:11.169Z,4.80
2019-03-11T06:25:40.717Z,1.00
2019-03-11T06:28:10.249Z,2.80
2019-03-11T06:30:39.746Z,5.87
2019-03-11T06:33:09.839Z,3.77
2019-03-11T06:35:40.520Z,2.90
2019-03-11T06:38:10.404Z,6.00
2019-03-11T06:40:40.047Z,4.27
2019-03-11T06:43:09.509Z,4.07
2019-03-11T06:45:40.342Z,2.53
2019-03-11T06:48:09.911Z,4.00
2019-03-11T06:50:39.617Z,3.80
2019-03-11T06:53:09.203Z,3.87
2019-03-11T06:55:38.778Z,1.70
2019-03-11T06:58:08.255Z,6.90
2019-03-11T07:00:37.814Z,5.43
2019-03-11T07:03:07.279Z,5.53
2019-03-11T07:05:36.835Z,1.73
2019-03-11T07:08:06.405Z,2.30
2019-03-11T07:10:36.298Z,3.30
2019-03-11T07:13:05.770Z,7.23
2019-03-11T07:15:35.278Z,2.60
2019-03-11T07:18:06.683Z,6.37
2019-03-11T07:20:35.887Z,5.50
2019-03-11T07:23:05.350Z,2.40
2019-03-11T07:25:34.870Z,7.00
2019-03-11T07:28:05.170Z,2.80
2019-03-11T07:30:34.691Z,5.10
2019-03-11T07:33:06.888Z,6.23
2019-03-11T07:35:35.402Z,7.77
2019-03-11T07:38:04.920Z,4.93
2019-03-11T07:40:34.466Z,4.37
2019-03-11T07:43:03.931Z,5.93
2019-03-11T07:45:33.459Z,3.67
2019-03-11T07:48:02.979Z,3.67
2019-03-11T07:50:32.518Z,5.00
2019-03-11T07:53:02.010Z,4.27
2019-03-11T07:55:33.574Z,7.07
2019-03-11T07:58:03.130Z,8.53
2019-03-11T08:00:32.616Z,3.00
2019-03-11T08:03:02.141Z,4.57
2019-03-11T08:05:31.643Z,3.63
2019-03-11T08:08:01.234Z,5.67
2019-03-11T08:10:30.870Z,10.87
2019-03-11T08:13:00.329Z,6.93
2019-03-11T08:15:29.883Z,7.67
2019-03-11T08:17:59.352Z,5.00
2019-03-11T08:20:28.863Z,2.97
2019-03-11T08:22:58.437Z,9.10
2019-03-11T08:25:27.903Z,8.43
2019-03-11T08:27:57.419Z,4.77
2019-03-11T08:30:26.988Z,5.33
2019-03-11T08:32:56.551Z,5.30
2019-03-11T08:35:26.055Z,3.23
2019-03-11T08:37:55.564Z,6.57
2019-03-11T08:40:25.122Z,6.33
2019-03-11T08:42:54.672Z,10.83
2019-03-11T08:45:24.499Z,8.73
2019-03-11T08:47:55.401Z,2.03
2019-03-11T08:50:24.952Z,2.70
2019-03-11T08:52:54.967Z,5.80
2019-03-11T08:55:24.687Z,3.33
2019-03-11T08:57:55.849Z,6.53
2019-03-11T09:00:26.483Z,4.27
2019-03-11T09:02:57.074Z,6.07
2019-03-11T09:05:26.659Z,5.03
2019-03-11T09:07:56.200Z,4.10
2019-03-11T09:10:25.794Z,4.67
2019-03-11T09:12:55.301Z,5.37
2019-03-11T09:15:24.901Z,3.60
2019-03-11T09:17:54.493Z,3.07
2019-03-11T09:20:23.973Z,3.67
2019-03-11T09:22:53.506Z,5.90
2019-03-11T09:25:23.034Z,4.90
2019-03-11T09:27:52.579Z,3.27
2019-03-11T09:30:22.162Z,5.30
2019-03-11T09:32:51.693Z,3.07
2019-03-11T09:35:21.165Z,3.23
2019-03-11T09:37:50.751Z,2.40
2019-03-11T09:40:20.269Z,5.13
2019-03-11T09:42:49.955Z,4.87
2019-03-11T09:45:19.533Z,8.00
2019-03-11T09:47:49.059Z,1.87
2019-03-11T09:50:18.650Z,2.27
2019-03-11T09:52:48.238Z,1.63
2019-03-11T09:55:17.747Z,2.63
2019-03-11T09:57:47.252Z,5.00
2019-03-11T10:00:18.917Z,5.23
2019-03-11T10:02:52.804Z,3.13
2019-03-11T10:05:19.543Z,3.40
2019-03-11T10:07:49.175Z,2.80
2019-03-11T10:10:18.742Z,4.10
2019-03-11T10:12:49.804Z,3.83
2019-03-11T10:15:19.591Z,2.93
2019-03-11T10:17:49.082Z,2.60
2019-03-11T10:20:18.748Z,2.83
2019-03-11T10:22:49.031Z,3.37
2019-03-11T10:25:18.903Z,3.67
2019-03-11T10:27:48.453Z,3.00
2019-03-11T10:30:18.403Z,2.37
2019-03-11T10:32:47.885Z,3.03
2019-03-11T10:35:31.480Z,1.20
2019-03-11T10:37:48.615Z,3.27
2019-03-11T10:40:19.701Z,1.97
2019-03-11T10:42:50.451Z,1.40
2019-03-11T10:45:31.396Z,1.30
2019-03-11T10:47:54.177Z,3.37
2019-03-11T10:50:23.765Z,4.17
2019-03-11T10:52:53.789Z,1.53
2019-03-11T10:55:23.791Z,1.70
2019-03-11T10:57:53.511Z,2.97
2019-03-11T11:00:25.127Z,1.67
2019-03-11T11:02:55.629Z,1.63
2019-03-11T11:05:25.533Z,2.20
2019-03-11T11:07:56.039Z,2.70
2019-03-11T11:10:26.114Z,3.17
2019-03-11T11:12:55.614Z,3.87
2019-03-11T11:15:25.331Z,2.33
2019-03-11T11:17:54.984Z,4.87
2019-03-11T11:20:25.488Z,4.93
2019-03-11T11:22:55.850Z,6.17
2019-03-11T11:25:25.674Z,2.03
2019-03-11T11:27:55.930Z,4.53
2019-03-11T11:30:27.055Z,3.27
2019-03-11T11:32:57.536Z,4.00
2019-03-11T11:35:27.471Z,3.87
2019-03-11T11:37:57.026Z,2.93
2019-03-11T11:40:26.688Z,3.00
2019-03-11T11:42:56.903Z,4.20
2019-03-11T11:45:26.618Z,3.27
2019-03-11T11:47:56.276Z,4.97
2019-03-11T11:50:26.271Z,4.43
2019-03-11T11:52:56.034Z,3.00
2019-03-11T11:55:25.651Z,3.40
2019-03-11T11:57:55.138Z,3.40
2019-03-11T12:00:27.686Z,2.60
2019-03-11T12:02:57.195Z,2.10
2019-03-11T12:05:26.755Z,2.93
2019-03-11T12:07:56.807Z,2.23
2019-03-11T12:10:27.015Z,5.27
2019-03-11T12:12:56.690Z,5.60
2019-03-11T12:15:26.228Z,4.83
2019-03-11T12:17:55.754Z,3.60
2019-03-11T12:20:25.332Z,3.70
2019-03-11T12:22:54.945Z,5.57
2019-03-11T12:25:24.488Z,1.83
2019-03-11T12:27:54.727Z,2.17
2019-03-11T12:30:25.603Z,2.33
2019-03-11T12:32:55.156Z,10.63
2019-03-11T12:35:24.967Z,5.50
2019-03-11T12:37:54.575Z,10.80
2019-03-11T12:40:24.323Z,4.70
2019-03-11T12:42:53.977Z,4.20
2019-03-11T12:45:24.411Z,6.73
2019-03-11T12:47:54.147Z,3.03
2019-03-11T12:50:24.570Z,4.50
2019-03-11T12:52:54.193Z,2.40
2019-03-11T12:55:23.723Z,3.30
2019-03-11T12:57:53.231Z,3.57
2019-03-11T13:00:22.869Z,3.53
2019-03-11T13:02:52.387Z,3.60
2019-03-11T13:05:22.575Z,3.97
2019-03-11T13:07:52.119Z,3.67
2019-03-11T13:10:21.787Z,3.33
2019-03-11T13:12:51.386Z,1.30
2019-03-11T13:15:21.403Z,2.37
2019-03-11T13:17:50.919Z,4.90
2019-03-11T13:20:30.033Z,3.30
2019-03-11T13:22:59.603Z,8.63
2019-03-11T13:25:29.135Z,5.30
2019-03-11T13:27:58.803Z,5.87
2019-03-11T13:30:28.310Z,1.80
2019-03-11T13:32:57.844Z,4.43
2019-03-11T13:35:30.627Z,9.33
2019-03-11T13:38:00.184Z,2.77
2019-03-11T13:40:29.711Z,3.03
2019-03-11T13:42:59.370Z,4.80
2019-03-11T13:45:28.877Z,5.07
2019-03-11T13:47:59.061Z,2.07
2019-03-11T13:50:28.741Z,5.47
2019-03-11T13:52:59.208Z,4.00
2019-03-11T13:55:28.717Z,4.00
2019-03-11T13:58:00.054Z,3.03
2019-03-11T14:00:29.549Z,4.60
2019-03-11T14:02:59.065Z,3.37
2019-03-11T14:05:28.643Z,4.77
2019-03-11T14:07:58.126Z,3.77
2019-03-11T14:10:27.630Z,4.93
2019-03-11T14:12:57.103Z,3.37
2019-03-11T14:15:26.621Z,3.97
2019-03-11T14:17:56.111Z,2.17
2019-03-11T14:20:25.615Z,2.97
2019-03-11T14:22:55.094Z,1.17
2019-03-11T14:25:24.575Z,2.70
2019-03-11T14:27:54.048Z,2.27
2019-03-11T14:30:23.565Z,2.53
2019-03-11T14:32:53.074Z,1.23
2019-03-11T14:35:22.562Z,3.13
2019-03-11T14:37:54.895Z,0.63
2019-03-11T14:40:24.539Z,1.20
2019-03-11T14:42:53.990Z,0.80
2019-03-11T14:45:23.555Z,1.37
2019-03-11T14:47:53.056Z,1.17
2019-03-11T14:50:22.590Z,1.40
2019-03-11T14:52:52.112Z,0.57
2019-03-11T14:55:21.690Z,3.83
2019-03-11T14:57:51.359Z,0.87
2019-03-11T15:00:21.455Z,0.73
2019-03-11T15:02:51.109Z,0.50
2019-03-11T15:05:20.628Z,1.37
2019-03-11T15:07:50.129Z,0.47
2019-03-11T15:10:19.795Z,0.70
2019-03-11T15:12:49.642Z,0.87
2019-03-11T15:15:19.700Z,1.83
2019-03-11T15:17:50.068Z,0.80
2019-03-11T15:20:19.290Z,0.80
2019-03-11T15:22:49.030Z,1.80
2019-03-11T15:25:19.414Z,1.10
2019-03-11T15:27:49.008Z,1.77
2019-03-11T15:30:18.589Z,1.00
2019-03-11T15:32:48.051Z,2.77
2019-03-11T15:35:17.695Z,1.57
2019-03-11T15:37:47.410Z,2.37
2019-03-11T15:40:16.930Z,1.90
2019-03-11T15:42:46.517Z,2.37
2019-03-11T15:45:16.238Z,1.73
2019-03-11T15:47:45.966Z,4.50
2019-03-11T15:50:17.828Z,2.87
2019-03-11T15:52:48.331Z,3.83
2019-03-11T15:55:18.120Z,3.90
2019-03-11T15:57:50.392Z,4.90
2019-03-11T16:00:20.946Z,3.50
2019-03-11T16:02:50.491Z,2.77
2019-03-11T16:05:20.395Z,2.83
2019-03-11T16:07:50.255Z,3.40
2019-03-11T16:10:19.833Z,3.93
2019-03-11T16:12:49.652Z,2.83
2019-03-11T16:15:20.051Z,4.73
2019-03-11T16:17:49.578Z,3.77
2019-03-11T16:20:21.876Z,7.53
2019-03-11T16:22:51.547Z,3.93
2019-03-11T16:25:21.054Z,2.63
2019-03-11T16:27:50.640Z,3.50
2019-03-11T16:30:20.768Z,4.60
2019-03-11T16:32:59.438Z,7.30
2019-03-11T16:35:22.119Z,1.27
2019-03-11T16:37:52.450Z,4.13
2019-03-11T16:40:21.969Z,3.97
2019-03-11T16:42:51.471Z,1.97
2019-03-11T16:45:21.900Z,0.97
2019-03-11T16:47:51.468Z,3.30
2019-03-11T16:50:21.074Z,3.77
2019-03-11T16:52:50.567Z,3.40
2019-03-11T16:55:23.303Z,2.63
2019-03-11T16:57:53.835Z,4.23
2019-03-11T17:00:29.044Z,5.30
2019-03-11T17:02:58.573Z,6.27
2019-03-11T17:05:28.355Z,3.60
2019-03-11T17:07:57.907Z,4.40
2019-03-11T17:10:28.339Z,3.47
2019-03-11T17:12:57.914Z,3.00
2019-03-11T17:15:27.555Z,3.27
2019-03-11T17:17:57.103Z,4.37
2019-03-11T17:20:26.612Z,2.17
2019-03-11T17:22:59.161Z,4.50
2019-03-11T17:25:28.622Z,3.07
2019-03-11T17:27:58.175Z,3.57
2019-03-11T17:30:27.811Z,5.43
2019-03-11T17:32:58.176Z,4.83
2019-03-11T17:35:27.646Z,5.70
2019-03-11T17:37:57.163Z,4.27
2019-03-11T17:40:26.838Z,3.83
2019-03-11T17:42:56.381Z,5.03
2019-03-11T17:45:25.831Z,5.70
2019-03-11T17:47:55.486Z,7.57
2019-03-11T17:50:27.934Z,6.87
2019-03-11T17:52:57.459Z,7.67
2019-03-11T17:55:26.949Z,7.03
2019-03-11T17:57:56.463Z,4.23
2019-03-11T18:00:27.712Z,6.53
2019-03-11T18:02:57.250Z,6.87
2019-03-11T18:05:26.802Z,5.30
2019-03-11T18:07:56.378Z,5.60
2019-03-11T18:10:25.922Z,6.50
2019-03-11T18:12:58.858Z,5.10
2019-03-11T18:15:28.406Z,8.50
2019-03-11T18:17:57.910Z,6.53
2019-03-11T18:20:27.575Z,5.93
2019-03-11T18:22:57.208Z,7.63
2019-03-11T18:25:26.781Z,6.73
2019-03-11T18:27:56.373Z,6.70
2019-03-11T18:30:25.986Z,10.70
2019-03-11T18:32:55.523Z,4.97
2019-03-11T18:35:27.591Z,7.63
2019-03-11T18:38:03.950Z,4.27
2019-03-11T18:40:28.602Z,6.93
2019-03-11T18:42:58.243Z,4.83
2019-03-11T18:45:27.794Z,4.60
2019-03-11T18:47:57.289Z,6.30
2019-03-11T18:50:27.094Z,5.57
2019-03-11T18:52:56.720Z,6.80
2019-03-11T18:55:26.383Z,6.20
2019-03-11T18:57:56.097Z,4.93
2019-03-11T19:00:25.978Z,8.43
2019-03-11T19:02:55.564Z,5.53
2019-03-11T19:05:25.129Z,4.97
2019-03-11T19:07:55.365Z,10.33
2019-03-11T19:10:25.326Z,7.00
2019-03-11T19:12:54.795Z,8.53
2019-03-11T19:15:27.476Z,6.77
2019-03-11T19:17:56.994Z,6.40
2019-03-11T19:20:26.699Z,6.00
2019-03-11T19:22:56.414Z,5.67
2019-03-11T19:25:26.047Z,6.80
2019-03-11T19:27:55.694Z,9.27
2019-03-11T19:30:25.339Z,9.67
2019-03-11T19:32:55.182Z,7.50
2019-03-11T19:35:25.057Z,7.23
2019-03-11T19:37:55.514Z,7.10
2019-03-11T19:40:25.008Z,6.23
2019-03-11T19:42:54.821Z,10.67
2019-03-11T19:45:24.536Z,7.80
2019-03-11T19:47:54.059Z,8.40
2019-03-11T19:50:23.795Z,7.53
2019-03-11T19:52:59.136Z,6.10
2019-03-11T19:55:24.675Z,8.13
2019-03-11T19:57:54.283Z,9.13
2019-03-11T20:00:24.020Z,5.63
2019-03-11T20:02:55.140Z,6.77
2019-03-11T20:05:25.268Z,6.37
2019-03-11T20:07:54.727Z,9.30
2019-03-11T20:10:24.683Z,7.67
2019-03-11T20:12:54.246Z,6.43
2019-03-11T20:15:23.800Z,8.10
2019-03-11T20:17:53.383Z,5.47
2019-03-11T20:20:23.152Z,4.23
2019-03-11T20:22:52.914Z,6.93
2019-03-11T20:25:25.089Z,6.60
2019-03-11T20:27:54.658Z,6.93
2019-03-11T20:30:24.631Z,6.93
2019-03-11T20:32:54.236Z,5.73
2019-03-11T20:35:23.971Z,7.67
2019-03-11T20:37:53.727Z,7.53
2019-03-11T20:40:24.202Z,7.77
2019-03-11T20:42:53.904Z,7.87
2019-03-11T20:45:23.493Z,8.30
2019-03-11T20:47:53.128Z,9.03
2019-03-11T20:50:22.626Z,11.37
2019-03-11T20:52:52.246Z,7.90
2019-03-11T20:55:21.741Z,7.77
2019-03-11T20:57:51.429Z,12.73
2019-03-11T21:00:21.197Z,8.13
2019-03-11T21:02:50.952Z,8.90
2019-03-11T21:05:23.191Z,10.17
2019-03-11T21:07:52.880Z,8.80
2019-03-11T21:10:22.465Z,9.83
2019-03-11T21:12:51.981Z,10.77
2019-03-11T21:15:22.608Z,12.40
2019-03-11T21:17:52.126Z,9.77
2019-03-11T21:20:21.844Z,11.20
2019-03-11T21:22:51.559Z,9.93
2019-03-11T21:25:21.302Z,11.07
2019-03-11T21:27:50.908Z,10.97
2019-03-11T21:30:21.240Z,8.73
2019-03-11T21:32:50.965Z,10.80
2019-03-11T21:35:21.379Z,9.47
2019-03-11T21:37:51.035Z,10.17
2019-03-11T21:40:20.686Z,9.73
2019-03-11T21:42:50.405Z,10.10
2019-03-11T21:45:32.930Z,14.03
2019-03-11T21:47:51.574Z,13.63
2019-03-11T21:50:21.810Z,9.53
2019-03-11T21:52:51.494Z,11.23
2019-03-11T21:55:21.096Z,11.83
2019-03-11T21:57:50.643Z,12.40
2019-03-11T22:00:32.957Z,12.03
2019-03-11T22:02:53.075Z,12.30
2019-03-11T22:05:23.556Z,14.50
2019-03-11T22:07:53.185Z,15.37
2019-03-11T22:10:22.901Z,14.20
2019-03-11T22:12:52.484Z,15.83
2019-03-11T22:15:22.046Z,12.03
2019-03-11T22:17:52.335Z,14.13
2019-03-11T22:20:21.970Z,12.30
2019-03-11T22:22:51.491Z,9.57
2019-03-11T22:25:21.168Z,10.77
2019-03-11T22:27:50.779Z,14.43
2019-03-11T22:30:20.712Z,16.27
2019-03-11T22:32:50.224Z,10.83
2019-03-11T22:35:20.925Z,11.10
2019-03-11T22:37:50.423Z,15.07
2019-03-11T22:40:20.474Z,13.83
2019-03-11T22:42:49.961Z,10.93
2019-03-11T22:45:21.588Z,12.53
2019-03-11T22:47:51.228Z,11.37
2019-03-11T22:50:20.739Z,10.07
2019-03-11T22:52:50.710Z,8.03
2019-03-11T22:55:20.332Z,12.43
2019-03-11T22:57:49.857Z,11.43
2019-03-11T23:00:35.491Z,12.37
2019-03-11T23:03:06.687Z,9.13
2019-03-11T23:05:36.281Z,10.07
2019-03-11T23:08:05.826Z,14.67
2019-03-11T23:10:35.323Z,9.97
2019-03-11T23:13:04.864Z,10.30
2019-03-11T23:15:34.410Z,11.07
2019-03-11T23:18:04.649Z,9.33
2019-03-11T23:20:34.159Z,9.57
2019-03-11T23:23:03.715Z,11.60
2019-03-11T23:25:33.214Z,12.07
2019-03-11T23:28:02.749Z,14.97
2019-03-11T23:30:32.903Z,13.80
2019-03-11T23:33:02.428Z,14.43
2019-03-11T23:35:32.065Z,12.17
2019-03-11T23:38:01.563Z,17.03
2019-03-11T23:40:31.078Z,13.53
2019-03-11T23:43:00.595Z,14.60
2019-03-11T23:45:30.150Z,11.23
2019-03-11T23:47:59.624Z,9.17
2019-03-11T23:50:29.127Z,11.77
2019-03-11T23:52:58.679Z,11.77
2019-03-11T23:55:28.185Z,8.10
2019-03-11T23:57:57.728Z,9.47
